Time;durP1;ratioP1;P1;durP2;ratioP2;P2;SDS_P1;SDS_P2;PMS_P1;PMS_P2;Temp;Humidity;BMP_temperature;BMP_pressure;BME280_temperature;BME280_humidity;BME280_pressure;Samples;Min_cycle;Max_cycle;Signal;HPM_P1;HPM_P2
2023/04/26 00:00:37;;;;;;;2.10;1.83;;;;;;;;;;5049645;28;20453;-71
2023/04/26 00:03:06;;;;;;;4.40;1.93;;;;;;;;;;5049192;28;20457;-71
2023/04/26 00:05:34;;;;;;;1.87;1.70;;;;;;;;;;5049238;28;20465;-71
2023/04/26 00:08:03;;;;;;;2.33;1.93;;;;;;;;;;5048270;28;20447;-73
2023/04/26 00:10:31;;;;;;;1.87;1.70;;;;;;;;;;5049260;28;20954;-73
2023/04/26 00:12:58;;;;;;;2.40;1.90;;;;;;;;;;5048301;28;20546;-72
2023/04/26 00:15:25;;;;;;;3.20;1.40;;;;;;;;;;5049372;28;20458;-71
2023/04/26 00:17:52;;;;;;;2.80;1.50;;;;;;;;;;5048476;28;20479;-71
2023/04/26 00:20:19;;;;;;;3.00;1.27;;;;;;;;;;5048080;28;20457;-71
2023/04/26 00:22:46;;;;;;;2.90;2.03;;;;;;;;;;5038165;28;20450;-72
2023/04/26 00:25:15;;;;;;;8.53;1.67;;;;;;;;;;5048015;28;20943;-72
2023/04/26 00:27:42;;;;;;;1.73;1.57;;;;;;;;;;5041684;28;20815;-72
2023/04/26 00:30:10;;;;;;;6.80;2.57;;;;;;;;;;5044593;28;20454;-72
2023/04/26 00:32:37;;;;;;;2.53;2.33;;;;;;;;;;5047427;28;20455;-72
2023/04/26 00:35:05;;;;;;;1.70;1.40;;;;;;;;;;5049056;28;20453;-72
2023/04/26 00:37:32;;;;;;;1.73;1.63;;;;;;;;;;5046820;28;20877;-72
2023/04/26 00:39:59;;;;;;;2.00;1.43;;;;;;;;;;5048486;28;20461;-72
2023/04/26 00:42:29;;;;;;;1.67;1.30;;;;;;;;;;5049330;28;20857;-72
2023/04/26 00:44:56;;;;;;;1.30;1.20;;;;;;;;;;5047268;28;20451;-73
2023/04/26 00:47:23;;;;;;;3.47;2.00;;;;;;;;;;5048149;28;20451;-72
2023/04/26 00:49:51;;;;;;;1.87;1.30;;;;;;;;;;5045875;28;20473;-72
2023/04/26 00:52:18;;;;;;;2.53;1.90;;;;;;;;;;5049368;28;20443;-73
2023/04/26 00:54:45;;;;;;;3.20;1.60;;;;;;;;;;5048581;28;20474;-72
2023/04/26 00:57:13;;;;;;;4.17;1.40;;;;;;;;;;5048293;28;20983;-72
2023/04/26 00:59:41;;;;;;;1.30;1.20;;;;;;;;;;5048647;28;20817;-71
2023/04/26 01:02:09;;;;;;;3.70;1.60;;;;;;;;;;5048513;28;20457;-71
2023/04/26 01:04:36;;;;;;;2.00;1.80;;;;;;;;;;5048787;28;20450;-71
2023/04/26 01:07:04;;;;;;;2.60;1.77;;;;;;;;;;5048793;28;20449;-71
2023/04/26 01:09:32;;;;;;;2.27;1.73;;;;;;;;;;5050351;28;20534;-71
2023/04/26 01:11:59;;;;;;;1.50;1.40;;;;;;;;;;5050437;28;20453;-71
2023/04/26 01:14:26;;;;;;;1.70;1.57;;;;;;;;;;5050703;28;20446;-71
2023/04/26 01:16:55;;;;;;;1.93;1.77;;;;;;;;;;5049743;28;20451;-70
2023/04/26 01:19:22;;;;;;;2.50;1.83;;;;;;;;;;5050186;28;20504;-71
2023/04/26 01:21:50;;;;;;;2.00;1.63;;;;;;;;;;5049453;28;20457;-71
2023/04/26 01:24:18;;;;;;;3.07;2.77;;;;;;;;;;5050138;28;20462;-71
2023/04/26 01:26:46;;;;;;;2.20;1.37;;;;;;;;;;5048925;28;20791;-71
2023/04/26 01:29:16;;;;;;;3.70;1.70;;;;;;;;;;5049502;28;20446;-71
2023/04/26 01:31:43;;;;;;;2.57;1.70;;;;;;;;;;5049031;28;20442;-71
2023/04/26 01:34:10;;;;;;;1.47;1.33;;;;;;;;;;5049918;28;20456;-71
2023/04/26 01:36:37;;;;;;;2.30;1.93;;;;;;;;;;5048167;28;20509;-71
2023/04/26 01:39:05;;;;;;;4.33;1.77;;;;;;;;;;5050011;28;20486;-71
2023/04/26 01:41:33;;;;;;;1.80;1.57;;;;;;;;;;5049987;28;20461;-71
2023/04/26 01:44:01;;;;;;;2.10;1.90;;;;;;;;;;5049784;28;20537;-71
2023/04/26 01:46:28;;;;;;;3.03;2.00;;;;;;;;;;5049295;28;20454;-71
2023/04/26 01:48:56;;;;;;;2.30;2.10;;;;;;;;;;5048981;28;20969;-71
2023/04/26 01:51:23;;;;;;;2.53;1.47;;;;;;;;;;5049832;28;20537;-71
2023/04/26 01:53:50;;;;;;;1.37;1.20;;;;;;;;;;5052869;28;20461;-70
2023/04/26 01:56:17;;;;;;;2.13;1.83;;;;;;;;;;5053504;28;20454;-71
2023/04/26 01:58:46;;;;;;;2.70;1.40;;;;;;;;;;5052466;28;20486;-71
2023/04/26 02:01:13;;;;;;;0.70;0.60;;;;;;;;;;5053370;28;20446;-71
2023/04/26 02:03:40;;;;;;;2.03;1.37;;;;;;;;;;5052367;28;20449;-69
2023/04/26 02:06:07;;;;;;;2.63;2.03;;;;;;;;;;5052801;28;20922;-70
2023/04/26 02:08:34;;;;;;;2.73;2.43;;;;;;;;;;5052550;28;20450;-71
2023/04/26 02:11:02;;;;;;;3.07;1.67;;;;;;;;;;5053400;28;20449;-71
2023/04/26 02:13:29;;;;;;;1.40;1.30;;;;;;;;;;5053463;28;20454;-71
2023/04/26 02:15:58;;;;;;;2.03;1.43;;;;;;;;;;5052441;28;21271;-71
2023/04/26 02:18:25;;;;;;;1.10;1.00;;;;;;;;;;5052504;28;20556;-70
2023/04/26 02:20:52;;;;;;;2.03;1.53;;;;;;;;;;5052155;28;20474;-71
2023/04/26 02:23:19;;;;;;;1.60;1.27;;;;;;;;;;5052419;28;20462;-72
2023/04/26 02:25:47;;;;;;;2.20;1.20;;;;;;;;;;5052351;28;20454;-72
2023/04/26 02:28:14;;;;;;;2.63;1.20;;;;;;;;;;5052576;28;20463;-71
2023/04/26 02:30:42;;;;;;;1.57;0.90;;;;;;;;;;5051081;28;20493;-72
2023/04/26 02:33:10;;;;;;;1.10;0.90;;;;;;;;;;5052439;28;20454;-70
2023/04/26 02:35:37;;;;;;;1.60;1.37;;;;;;;;;;5051430;28;20451;-71
2023/04/26 02:38:05;;;;;;;1.33;1.23;;;;;;;;;;5052423;28;20833;-71
2023/04/26 02:40:32;;;;;;;3.00;1.80;;;;;;;;;;5039667;28;20453;-71
2023/04/26 02:42:59;;;;;;;1.77;1.67;;;;;;;;;;5052627;28;20457;-71
2023/04/26 02:45:26;;;;;;;1.57;1.47;;;;;;;;;;5052300;28;20450;-71
2023/04/26 02:47:53;;;;;;;1.70;1.27;;;;;;;;;;5050921;28;20462;-71
2023/04/26 02:50:22;;;;;;;1.23;1.13;;;;;;;;;;5050707;28;20533;-71
2023/04/26 02:52:49;;;;;;;1.30;1.20;;;;;;;;;;5051534;28;20508;-70
2023/04/26 02:55:16;;;;;;;1.43;1.13;;;;;;;;;;5052040;28;20489;-70
2023/04/26 02:57:43;;;;;;;2.03;1.30;;;;;;;;;;5051903;28;20450;-71
2023/04/26 03:00:12;;;;;;;6.70;1.90;;;;;;;;;;5052698;28;20497;-71
2023/04/26 03:02:39;;;;;;;1.83;1.40;;;;;;;;;;5052207;28;20454;-71
2023/04/26 03:05:08;;;;;;;1.30;1.00;;;;;;;;;;5052473;28;20791;-71
2023/04/26 03:07:36;;;;;;;5.63;1.73;;;;;;;;;;5046585;28;20985;-71
2023/04/26 03:10:04;;;;;;;3.07;1.90;;;;;;;;;;5052592;28;20453;-70
2023/04/26 03:12:31;;;;;;;1.57;1.20;;;;;;;;;;5052329;28;20533;-71
2023/04/26 03:14:58;;;;;;;2.37;1.47;;;;;;;;;;5052543;28;20723;-70
2023/04/26 03:17:25;;;;;;;1.50;1.20;;;;;;;;;;5051778;28;20450;-70
2023/04/26 03:19:53;;;;;;;2.03;1.50;;;;;;;;;;5050976;28;20489;-71
2023/04/26 03:22:20;;;;;;;1.50;1.40;;;;;;;;;;5051363;28;20457;-71
2023/04/26 03:24:49;;;;;;;1.43;1.33;;;;;;;;;;5050952;28;20821;-71
2023/04/26 03:27:16;;;;;;;56.40;2.40;;;;;;;;;;5050749;28;20938;-71
2023/04/26 03:29:43;;;;;;;1.53;1.43;;;;;;;;;;5050896;28;20454;-71
2023/04/26 03:32:10;;;;;;;5.40;0.97;;;;;;;;;;5051751;28;20462;-71
2023/04/26 03:34:37;;;;;;;2.13;1.57;;;;;;;;;;5050390;28;20458;-71
2023/04/26 03:37:05;;;;;;;1.33;1.03;;;;;;;;;;5050949;28;20489;-71
2023/04/26 03:39:32;;;;;;;3.13;1.53;;;;;;;;;;5051200;28;20487;-71
2023/04/26 03:42:02;;;;;;;1.60;1.30;;;;;;;;;;5051056;28;20981;-71
2023/04/26 03:44:29;;;;;;;0.90;0.80;;;;;;;;;;5051321;28;20534;-71
2023/04/26 03:46:56;;;;;;;1.83;1.67;;;;;;;;;;5050038;28;20969;-71
2023/04/26 03:49:24;;;;;;;3.17;1.70;;;;;;;;;;5051720;28;20533;-71
2023/04/26 03:51:51;;;;;;;1.50;1.27;;;;;;;;;;5050647;28;20648;-71
2023/04/26 03:54:18;;;;;;;2.30;1.63;;;;;;;;;;5051107;28;20474;-71
2023/04/26 03:56:45;;;;;;;2.23;1.53;;;;;;;;;;5050117;28;20446;-71
2023/04/26 03:59:13;;;;;;;1.67;1.57;;;;;;;;;;5051107;28;20993;-71
2023/04/26 04:01:40;;;;;;;3.40;1.57;;;;;;;;;;5050680;28;20776;-71
2023/04/26 04:04:08;;;;;;;1.40;1.30;;;;;;;;;;5051185;28;20489;-71
2023/04/26 04:06:37;;;;;;;3.00;1.60;;;;;;;;;;5039447;28;20461;-71
2023/04/26 04:09:05;;;;;;;2.40;1.47;;;;;;;;;;5051219;28;20455;-71
2023/04/26 04:11:33;;;;;;;1.80;1.60;;;;;;;;;;5050797;28;20852;-71
2023/04/26 04:14:01;;;;;;;5.23;3.27;;;;;;;;;;5051077;28;20512;-71
2023/04/26 04:16:30;;;;;;;1.93;1.70;;;;;;;;;;5050331;28;20450;-71
2023/04/26 04:18:57;;;;;;;3.73;1.70;;;;;;;;;;5050526;28;20984;-71
2023/04/26 04:21:24;;;;;;;4.70;2.10;;;;;;;;;;5050528;28;20457;-71
2023/04/26 04:23:52;;;;;;;2.63;2.43;;;;;;;;;;5049559;28;21257;-71
2023/04/26 04:26:19;;;;;;;2.80;2.00;;;;;;;;;;5050069;28;20456;-71
2023/04/26 04:28:47;;;;;;;2.10;1.37;;;;;;;;;;5049756;28;20537;-71
2023/04/26 04:31:16;;;;;;;2.03;1.93;;;;;;;;;;5050568;28;20454;-71
2023/04/26 04:33:44;;;;;;;1.20;1.07;;;;;;;;;;5049618;28;20450;-71
2023/04/26 04:36:11;;;;;;;3.43;2.83;;;;;;;;;;5050082;28;20450;-71
2023/04/26 04:38:39;;;;;;;4.17;1.67;;;;;;;;;;5049700;28;20476;-71
2023/04/26 04:41:07;;;;;;;4.20;2.87;;;;;;;;;;5050278;28;20544;-70
2023/04/26 04:43:34;;;;;;;1.80;1.50;;;;;;;;;;5049342;28;20458;-72
2023/04/26 04:46:01;;;;;;;2.40;2.13;;;;;;;;;;5049418;28;20810;-71
2023/04/26 04:48:28;;;;;;;2.40;1.47;;;;;;;;;;5050236;28;20454;-70
2023/04/26 04:50:57;;;;;;;3.23;2.10;;;;;;;;;;5049998;28;20453;-71
2023/04/26 04:53:24;;;;;;;2.93;2.10;;;;;;;;;;5050091;28;20449;-71
2023/04/26 04:55:51;;;;;;;2.60;2.40;;;;;;;;;;5049795;28;20736;-72
2023/04/26 04:58:18;;;;;;;3.00;2.10;;;;;;;;;;5050648;28;20450;-72
2023/04/26 05:00:45;;;;;;;5.10;2.47;;;;;;;;;;5049087;28;20481;-71
2023/04/26 05:03:14;;;;;;;3.17;2.87;;;;;;;;;;5049914;28;20444;-72
2023/04/26 05:05:41;;;;;;;2.60;2.00;;;;;;;;;;5049618;28;20461;-72
2023/04/26 05:08:09;;;;;;;3.77;2.07;;;;;;;;;;5050157;28;20456;-71
2023/04/26 05:10:37;;;;;;;3.57;2.00;;;;;;;;;;5049031;28;20458;-72
2023/04/26 05:13:04;;;;;;;4.50;3.10;;;;;;;;;;5049791;28;20893;-71
2023/04/26 05:15:31;;;;;;;3.00;2.67;;;;;;;;;;5050051;28;20533;-73
2023/04/26 05:17:59;;;;;;;2.60;2.40;;;;;;;;;;5050268;28;20450;-72
2023/04/26 05:20:26;;;;;;;1.87;1.67;;;;;;;;;;5050004;28;20481;-72
2023/04/26 05:22:53;;;;;;;4.20;2.30;;;;;;;;;;5049012;28;20453;-71
2023/04/26 05:25:21;;;;;;;2.47;1.93;;;;;;;;;;5049320;28;20795;-71
2023/04/26 05:27:48;;;;;;;2.07;1.70;;;;;;;;;;5050503;28;20442;-71
2023/04/26 05:30:16;;;;;;;2.30;1.87;;;;;;;;;;5053824;28;20564;-71
2023/04/26 05:32:44;;;;;;;4.03;1.80;;;;;;;;;;5053029;28;20449;-71
2023/04/26 05:35:11;;;;;;;2.03;1.73;;;;;;;;;;5053537;28;20509;-71
2023/04/26 05:37:39;;;;;;;2.87;1.73;;;;;;;;;;5050976;28;20442;-72
2023/04/26 05:40:07;;;;;;;3.83;2.87;;;;;;;;;;5053520;28;20478;-71
2023/04/26 05:42:36;;;;;;;3.70;2.23;;;;;;;;;;5052539;28;20962;-72
2023/04/26 05:45:03;;;;;;;4.50;2.77;;;;;;;;;;5053053;28;20439;-71
2023/04/26 05:47:30;;;;;;;2.30;2.10;;;;;;;;;;5052389;28;20451;-72
2023/04/26 05:49:57;;;;;;;3.63;2.93;;;;;;;;;;5052538;28;20461;-72
2023/04/26 05:52:24;;;;;;;3.27;1.67;;;;;;;;;;5052606;28;20450;-71
2023/04/26 05:54:51;;;;;;;5.43;3.37;;;;;;;;;;5052354;28;20497;-71
2023/04/26 05:57:18;;;;;;;4.70;2.40;;;;;;;;;;5051192;28;20457;-70
2023/04/26 05:59:47;;;;;;;5.60;3.43;;;;;;;;;;5048192;28;20488;-70
2023/04/26 06:02:14;;;;;;;11.43;3.27;;;;;;;;;;5050942;28;20454;-70
2023/04/26 06:04:41;;;;;;;7.03;2.97;;;;;;;;;;5050439;28;20458;-70
2023/04/26 06:07:08;;;;;;;4.73;3.77;;;;;;;;;;5049801;28;20451;-71
2023/04/26 06:09:35;;;;;;;4.27;3.37;;;;;;;;;;5049555;28;20818;-70
2023/04/26 06:12:03;;;;;;;5.40;4.13;;;;;;;;;;5050451;28;20446;-70
2023/04/26 06:14:30;;;;;;;4.23;2.47;;;;;;;;;;5051110;28;20466;-72
2023/04/26 06:16:58;;;;;;;5.00;3.80;;;;;;;;;;5049517;28;20537;-71
2023/04/26 06:19:26;;;;;;;4.13;2.80;;;;;;;;;;5050460;28;20485;-72
2023/04/26 06:21:54;;;;;;;6.20;3.33;;;;;;;;;;5050489;28;20536;-71
2023/04/26 06:24:21;;;;;;;4.93;2.63;;;;;;;;;;5047060;28;21196;-70
2023/04/26 06:26:48;;;;;;;4.50;3.10;;;;;;;;;;5049593;28;20450;-70
2023/04/26 06:29:15;;;;;;;4.20;3.00;;;;;;;;;;5048705;28;20504;-70
2023/04/26 06:31:42;;;;;;;5.00;3.63;;;;;;;;;;5049324;28;20454;-70
2023/04/26 06:34:11;;;;;;;3.10;2.80;;;;;;;;;;5050469;28;20462;-70
2023/04/26 06:36:38;;;;;;;6.90;3.83;;;;;;;;;;5049245;28;20453;-70
2023/04/26 06:39:05;;;;;;;4.03;2.93;;;;;;;;;;5051292;28;20485;-70
2023/04/26 06:41:32;;;;;;;3.40;2.50;;;;;;;;;;5049950;28;20512;-69
2023/04/26 06:43:59;;;;;;;3.00;2.27;;;;;;;;;;5051387;28;20447;-70
2023/04/26 06:46:27;;;;;;;5.90;4.70;;;;;;;;;;5051350;28;20462;-71
2023/04/26 06:48:54;;;;;;;3.80;2.33;;;8.60;69.90;;;;;;5049358;28;20454;-71
2023/04/26 06:51:22;;;;;;;5.10;3.17;;;8.80;99.90;;;;;;5050759;28;20468;-70
2023/04/26 06:53:49;;;;;;;2.10;1.83;;;8.80;99.90;;;;;;5047565;28;20459;-70
2023/04/26 06:56:16;;;;;;;3.37;2.17;;;8.70;1.00;;;;;;5046533;28;20447;-70
2023/04/26 06:58:59;;;;;;;3.03;2.50;;;8.90;1.00;;;;;;5050505;28;20451;-70
2023/04/26 07:01:27;;;;;;;3.50;2.97;;;9.00;1.00;;;;;;5049716;28;20470;-70
2023/04/26 07:03:55;;;;;;;2.80;2.03;;;9.00;99.90;;;;;;5048924;28;20450;-71
2023/04/26 07:06:24;;;;;;;2.87;1.93;;;9.10;99.90;;;;;;5048654;28;20468;-71
2023/04/26 07:08:50;;;;;;;3.43;2.23;;;9.20;99.90;;;;;;5049661;28;20450;-71
2023/04/26 07:11:17;;;;;;;2.30;1.67;;;9.30;99.90;;;;;;5049096;28;20851;-70
2023/04/26 07:13:44;;;;;;;2.20;1.87;;;9.30;99.90;;;;;;5049183;28;20455;-70
2023/04/26 07:16:11;;;;;;;3.07;2.37;;;9.40;99.90;;;;;;5050259;28;20486;-70
2023/04/26 07:18:39;;;;;;;2.60;1.80;;;9.40;99.90;;;;;;5049596;28;20442;-70
2023/04/26 07:21:06;;;;;;;2.43;2.20;;;9.40;99.90;;;;;;5049611;28;20478;-70
2023/04/26 07:23:35;;;;;;;6.30;2.90;;;9.40;99.90;;;;;;5049237;28;20485;-69
2023/04/26 07:26:03;;;;;;;2.67;2.43;;;9.40;99.90;;;;;;5039589;28;20454;-69
2023/04/26 07:28:30;;;;;;;2.90;1.60;;;9.40;99.90;;;;;;5049695;28;20458;-69
2023/04/26 07:30:57;;;;;;;1.50;1.40;;;9.40;99.90;;;;;;5049003;28;20450;-69
2023/04/26 07:33:24;;;;;;;3.27;1.90;;;9.40;99.90;;;;;;5049708;28;20813;-69
2023/04/26 07:35:55;;;;;;;3.07;1.50;;;9.40;99.90;;;;;;5047980;28;21444;-69
2023/04/26 07:38:22;;;;;;;1.83;1.57;;;9.50;99.90;;;;;;5049226;28;20532;-69
2023/04/26 07:40:51;;;;;;;3.03;1.90;;;9.50;99.90;;;;;;5047748;28;20474;-70
2023/04/26 07:43:19;;;;;;;2.27;1.73;;;9.70;99.90;;;;;;5048582;28;20459;-70
2023/04/26 07:45:45;;;;;;;7.17;2.03;;;9.70;99.90;;;;;;5045465;28;20453;-70
2023/04/26 07:48:12;;;;;;;4.30;1.57;;;10.00;99.90;;;;;;5048912;28;21293;-72
2023/04/26 07:50:39;;;;;;;2.60;2.40;;;9.80;99.90;;;;;;5047958;28;20824;-70
2023/04/26 07:53:06;;;;;;;2.47;1.60;;;9.90;99.90;;;;;;5044965;28;20453;-70
2023/04/26 07:55:33;;;;;;;4.00;2.13;;;10.10;99.90;;;;;;5047436;28;20858;-70
2023/04/26 07:58:01;;;;;;;2.47;2.07;;;10.10;99.90;;;;;;5048347;28;20473;-71
2023/04/26 08:00:28;;;;;;;3.57;2.40;;;10.10;99.90;;;;;;5057616;28;20480;-70
2023/04/26 08:02:55;;;;;;;3.10;1.83;;;10.10;99.90;;;;;;5052189;28;20454;-70
2023/04/26 08:05:22;;;;;;;4.13;1.93;;;10.20;99.90;;;;;;5049248;28;20447;-70
2023/04/26 08:07:48;;;;;;;2.80;1.67;;;10.10;99.90;;;;;;5048664;28;20947;-69
2023/04/26 08:10:15;;;;;;;2.30;1.90;;;10.20;99.90;;;;;;5049905;28;20446;-70
2023/04/26 08:12:42;;;;;;;4.63;2.20;;;10.30;99.90;;;;;;5048179;28;20465;-69
2023/04/26 08:15:12;;;;;;;2.13;1.90;;;10.40;99.90;;;;;;5050032;28;20450;-68
2023/04/26 08:17:38;;;;;;;2.13;1.57;;;10.50;99.90;;;;;;5048179;28;20451;-69
2023/04/26 08:20:08;;;;;;;1.37;1.27;;;10.60;99.90;;;;;;5049008;28;20482;-69
2023/04/26 08:22:35;;;;;;;3.33;2.10;;;10.60;99.90;;;;;;5048203;28;20894;-70
2023/04/26 08:25:03;;;;;;;3.47;1.60;;;10.70;99.90;;;;;;5048203;28;20458;-73
2023/04/26 08:27:30;;;;;;;2.40;2.00;;;10.70;99.90;;;;;;5048085;28;20446;-70
2023/04/26 08:29:57;;;;;;;1.90;1.70;;;10.80;99.90;;;;;;5047116;28;20458;-69
2023/04/26 08:32:26;;;;;;;3.57;1.83;;;10.80;99.90;;;;;;5048622;28;20465;-70
2023/04/26 08:34:53;;;;;;;5.17;1.90;;;;;;;;;;5048167;28;20601;-71
2023/04/26 08:37:20;;;;;;;4.37;2.80;;;;;;;;;;5047839;28;20451;-70
2023/04/26 08:39:47;;;;;;;3.53;1.77;;;;;;;;;;5048774;28;20806;-70
2023/04/26 08:42:15;;;;;;;5.33;1.90;;;;;;;;;;5048428;28;20442;-70
2023/04/26 08:44:43;;;;;;;3.40;2.47;;;;;;;;;;5048793;28;20494;-69
2023/04/26 08:47:14;;;;;;;4.77;2.10;;;;;;;;;;5049445;28;20457;-69
2023/04/26 08:49:46;;;;;;;3.50;2.03;;;;;;;;;;5048279;28;20515;-70
2023/04/26 08:52:15;;;;;;;3.73;1.50;;;;;;;;;;5049209;28;20454;-70
2023/04/26 08:54:43;;;;;;;4.00;1.53;;;;;;;;;;5047268;28;20568;-69
2023/04/26 08:57:10;;;;;;;3.43;2.03;;;;;;;;;;5049062;28;20447;-68
2023/04/26 08:59:38;;;;;;;1.97;1.60;;;;;;;;;;5048016;28;20454;-69
2023/04/26 09:02:05;;;;;;;1.83;1.57;;;;;;;;;;5052608;28;20486;-69
2023/04/26 09:04:33;;;;;;;3.20;2.00;;;;;;;;;;5054453;28;20474;-69
2023/04/26 09:07:02;;;;;;;2.30;1.37;;;;;;;;;;5052523;28;20453;-70
2023/04/26 09:09:30;;;;;;;1.43;1.17;;;;;;;;;;5052045;28;20525;-69
2023/04/26 09:11:59;;;;;;;2.50;1.80;;;;;;;;;;5052844;28;20458;-69
2023/04/26 09:14:26;;;;;;;3.23;2.63;;;;;;;;;;5053525;28;20446;-69
2023/04/26 09:16:53;;;;;;;2.07;1.70;;;;;;;;;;5052462;28;20454;-69
2023/04/26 09:19:35;;;;;;;4.80;1.80;;;;;;;;;;5048035;28;20481;-69
2023/04/26 09:22:05;;;;;;;3.97;2.20;;;;;;;;;;5047154;28;20477;-70
2023/04/26 09:24:46;;;;;;;2.93;1.53;;;;;;;;;;5051431;28;20458;-70
2023/04/26 09:27:15;;;;;;;1.97;1.77;;;;;;;;;;5052688;28;20446;-70
2023/04/26 09:29:42;;;;;;;2.27;1.43;;;;;;;;;;5051410;28;20457;-69
2023/04/26 09:32:09;;;;;;;2.17;1.93;;;;;;;;;;5053708;28;20446;-70
2023/04/26 09:34:46;;;;;;;2.93;1.20;;;;;;;;;;5052572;28;20458;-69
2023/04/26 09:37:15;;;;;;;1.60;1.50;;;;;;;;;;5051282;28;20457;-71
2023/04/26 09:39:42;;;;;;;3.90;2.57;;;;;;;;;;5052693;28;20457;-70
2023/04/26 09:42:11;;;;;;;1.77;1.50;;;;;;;;;;5051587;28;20573;-71
2023/04/26 09:44:38;;;;;;;3.30;2.23;;;;;;;;;;5051893;28;20462;-70
2023/04/26 09:47:07;;;;;;;3.23;2.40;;;;;;;;;;5051588;28;20450;-71
2023/04/26 09:49:45;;;;;;;3.87;1.77;;;;;;;;;;5050219;28;20457;-70
2023/04/26 09:52:12;;;;;;;2.33;1.50;;;;;;;;;;5052587;28;20462;-70
2023/04/26 09:54:43;;;;;;;1.97;1.63;;;;;;;;;;5050104;28;20482;-70
2023/04/26 09:57:10;;;;;;;2.90;1.47;;;;;;;;;;5052303;28;20439;-69
2023/04/26 09:59:41;;;;;;;2.77;1.77;;;;;;;;;;5051161;28;20456;-70
2023/04/26 10:02:11;;;;;;;3.33;2.53;;;;;;;;;;5057197;28;20854;-70
2023/04/26 10:04:38;;;;;;;2.20;1.97;;;;;;;;;;5053668;28;20448;-69
2023/04/26 10:07:06;;;;;;;2.00;1.53;;;;;;;;;;5050060;28;20453;-70
2023/04/26 10:09:33;;;;;;;2.20;1.50;;;;;;;;;;5048496;28;20468;-69
2023/04/26 10:12:02;;;;;;;1.80;1.70;;;;;;;;;;5050123;28;20460;-69
2023/04/26 10:14:30;;;;;;;3.27;1.60;;;;;;;;;;5050764;28;20469;-72
2023/04/26 10:16:57;;;;;;;1.70;1.47;;;;;;;;;;5050487;28;20446;-72
2023/04/26 10:19:25;;;;;;;4.53;1.80;;;;;;;;;;5050543;28;20453;-71
2023/04/26 10:21:54;;;;;;;2.23;1.93;;;;;;;;;;5049769;28;20532;-68
2023/04/26 10:24:21;;;;;;;2.47;1.80;;;;;;;;;;5049452;28;20469;-69
2023/04/26 10:26:49;;;;;;;2.50;1.97;;;;;;;;;;5046659;28;20470;-69
2023/04/26 10:29:17;;;;;;;2.30;1.80;;;;;;;;;;5044750;28;20465;-70
2023/04/26 10:32:03;;;;;;;2.10;1.90;;;;;;;;;;5045548;28;20455;-68
2023/04/26 10:34:31;;;;;;;2.47;1.80;;;;;;;;;;5045639;28;21221;-68
2023/04/26 10:37:08;;;;;;;4.83;1.50;;;;;;;;;;5044540;28;20457;-68
2023/04/26 10:39:36;;;;;;;2.10;1.73;;;;;;;;;;5046238;28;20502;-69
2023/04/26 10:42:25;;;;;;;2.27;1.57;;;;;;;;;;5049091;28;20563;-70
2023/04/26 10:44:54;;;;;;;4.87;2.00;;;;;;;;;;5046326;28;20523;-71
2023/04/26 10:47:22;;;;;;;2.83;1.83;;;;;;;;;;5049864;28;21137;-71
2023/04/26 10:49:50;;;;;;;2.40;2.20;;;;;;;;;;5047778;28;20446;-71
2023/04/26 10:52:19;;;;;;;2.07;1.40;;;;;;;;;;5049436;28;21085;-70
2023/04/26 10:54:53;;;;;;;1.87;1.67;;;;;;;;;;5048650;28;20582;-70
2023/04/26 10:57:20;;;;;;;2.93;1.70;;;;;;;;;;5050218;28;20439;-70
2023/04/26 11:00:09;;;;;;;2.90;2.07;;;;;;;;;;5048659;28;20458;-70
2023/04/26 11:02:47;;;;;;;1.40;1.30;;;;;;;;;;5043431;28;20482;-70
2023/04/26 11:05:29;;;;;;;2.67;1.80;;;;;;;;;;5048205;28;20443;-70
2023/04/26 11:08:04;;;;;;;1.60;1.50;;;;;;;;;;5048273;28;20933;-71
2023/04/26 11:10:31;;;;;;;1.93;1.30;;;;;;;;;;5049630;28;20445;-71
2023/04/26 11:13:02;;;;;;;1.83;1.60;;;;;;;;;;5045017;28;20463;-70
2023/04/26 11:15:29;;;;;;;1.37;1.27;;;;;;;;;;5045564;28;20457;-70
2023/04/26 11:17:58;;;;;;;1.93;1.30;;;;;;;;;;5045662;28;20489;-71
2023/04/26 11:20:30;;;;;;;2.00;1.40;;;;;;;;;;5046994;28;20454;-71
2023/04/26 11:22:57;;;;;;;1.97;1.73;;;;;;;;;;5046710;28;20458;-71
2023/04/26 11:25:25;;;;;;;1.70;1.50;;;;;;;;;;5042953;28;21330;-70
2023/04/26 11:27:52;;;;;;;1.97;1.63;;;;;;;;;;5046114;28;21111;-70
2023/04/26 11:30:20;;;;;;;1.53;1.33;;;;;;;;;;5046501;28;20450;-70
2023/04/26 11:32:47;;;;;;;3.57;1.70;;;;;;;;;;5045906;28;20462;-70
2023/04/26 11:35:16;;;;;;;8.60;2.10;;;;;;;;;;5046409;28;20581;-70
2023/04/26 11:37:43;;;;;;;2.17;1.30;;;;;;;;;;5044368;28;20450;-70
2023/04/26 11:40:11;;;;;;;2.70;2.17;;;;;;;;;;5047488;28;20461;-70
2023/04/26 11:42:38;;;;;;;4.23;2.03;;;;;;;;;;5045678;28;20482;-70
2023/04/26 11:45:07;;;;;;;2.80;2.27;;;;;;;;;;5047272;28;20450;-70
2023/04/26 11:47:34;;;;;;;2.80;2.37;;;;;;;;;;5046073;28;20473;-70
2023/04/26 11:50:02;;;;;;;1.73;1.63;;;;;;;;;;5046504;28;20455;-70
2023/04/26 11:52:31;;;;;;;4.93;1.80;;;;;;;;;;5046049;28;20450;-70
2023/04/26 11:55:05;;;;;;;2.03;1.57;;;;;;;;;;5045821;28;20514;-70
2023/04/26 11:57:32;;;;;;;3.20;2.23;;;;;;;;;;5046168;28;20446;-70
2023/04/26 12:00:09;;;;;;;1.57;1.13;;;;;;;;;;5046667;28;20788;-70
2023/04/26 12:02:36;;;;;;;3.37;2.30;;;;;;;;;;5045501;28;20469;-70
2023/04/26 12:05:03;;;;;;;3.03;1.77;;;;;;;;;;5046830;28;20442;-70
2023/04/26 12:07:36;;;;;;;2.30;1.77;;;;;;;;;;5046007;28;20451;-70
2023/04/26 12:10:14;;;;;;;1.50;1.40;;;;;;;;;;5046814;28;20438;-70
2023/04/26 12:12:44;;;;;;;2.53;1.57;;;;;;;;;;5044738;28;20461;-70
2023/04/26 12:15:12;;;;;;;2.53;1.30;;;;;;;;;;5045936;28;20458;-70
2023/04/26 12:17:39;;;;;;;2.23;1.43;;;;;;;;;;5045371;28;20461;-70
2023/04/26 12:20:12;;;;;;;2.40;1.70;;;;;;;;;;5046574;28;20451;-70
2023/04/26 12:22:41;;;;;;;3.53;1.40;;;;;;;;;;5045321;28;20492;-69
2023/04/26 12:25:09;;;;;;;3.30;1.80;;;;;;;;;;5043245;28;21035;-70
2023/04/26 12:27:37;;;;;;;2.50;1.77;;;;;;;;;;5046115;28;20457;-70
2023/04/26 12:30:04;;;;;;;2.40;1.60;;;;;;;;;;5043968;28;20519;-70
2023/04/26 12:32:31;;;;;;;2.10;1.90;;;;;;;;;;5046240;28;20457;-70
2023/04/26 12:34:58;;;;;;;2.07;1.87;;;;;;;;;;5045857;28;20450;-70
2023/04/26 12:37:25;;;;;;;2.83;1.80;;;;;;;;;;5044660;28;20460;-70
2023/04/26 12:39:54;;;;;;;1.70;1.20;;;;;;;;;;5045100;28;20453;-70
2023/04/26 12:42:21;;;;;;;2.80;1.30;;;;;;;;;;5045484;28;20490;-70
2023/04/26 12:44:48;;;;;;;1.83;1.53;;;;;;;;;;5045667;28;20463;-71
2023/04/26 12:47:15;;;;;;;4.53;1.57;;;;;;;;;;5046042;28;20458;-70
2023/04/26 12:49:42;;;;;;;2.27;1.67;;;;;;;;;;5044059;28;20446;-69
2023/04/26 12:52:09;;;;;;;5.53;1.27;;;;;;;;;;5046018;28;20505;-69
2023/04/26 12:54:37;;;;;;;1.97;1.57;;;;;;;;;;5044166;28;20924;-69
2023/04/26 12:57:06;;;;;;;1.73;1.63;;;;;;;;;;5045243;28;20968;-69
2023/04/26 12:59:33;;;;;;;3.53;1.40;;;;;;;;;;5045813;28;20450;-69
2023/04/26 13:02:02;;;;;;;1.73;1.53;;;;;;;;;;5044978;28;20478;-70
2023/04/26 13:04:29;;;;;;;3.47;1.50;;;;;;;;;;5046270;28;20462;-68
2023/04/26 13:06:56;;;;;;;3.23;1.73;;;;;;;;;;5037318;28;20453;-67
2023/04/26 13:09:23;;;;;;;1.87;1.70;;;;;;;;;;5044895;28;20457;-70
2023/04/26 13:11:51;;;;;;;1.47;1.37;;;;;;;;;;5043309;28;20488;-69
2023/04/26 13:14:19;;;;;;;3.60;2.03;;;;;;;;;;5043958;28;20449;-70
2023/04/26 13:16:46;;;;;;;2.27;1.87;;;;;;;;;;5042937;28;20461;-68
2023/04/26 13:19:13;;;;;;;2.90;1.97;;;;;;;;;;5043404;28;20461;-70
2023/04/26 13:21:40;;;;;;;1.50;1.23;;;;;;;;;;5043204;28;20831;-69
2023/04/26 13:24:08;;;;;;;2.97;2.07;;;;;;;;;;5042621;28;20512;-69
2023/04/26 13:26:35;;;;;;;1.70;1.60;;;;;;;;;;5042250;28;20455;-69
2023/04/26 13:29:03;;;;;;;2.43;2.23;;;;;;;;;;5043499;28;20454;-69
2023/04/26 13:31:31;;;;;;;1.50;1.37;;;;;;;;;;5042953;28;20478;-69
2023/04/26 13:33:58;;;;;;;2.57;2.27;;;;;;;;;;5043801;28;20549;-70
2023/04/26 13:36:26;;;;;;;3.03;1.77;;;;;;;;;;5042620;28;20477;-71
2023/04/26 13:38:53;;;;;;;2.60;2.00;;;;;;;;;;5044040;28;20447;-70
2023/04/26 13:41:21;;;;;;;2.17;1.40;;;;;;;;;;5044072;28;20458;-70
2023/04/26 13:43:48;;;;;;;1.60;1.30;;;;;;;;;;5043124;28;20443;-69
2023/04/26 13:46:15;;;;;;;2.40;1.67;;;;;;;;;;5043787;28;20557;-69
2023/04/26 13:48:44;;;;;;;1.60;1.27;;;;;;;;;;5045481;28;20451;-69
2023/04/26 13:51:11;;;;;;;2.80;1.47;;;;;;;;;;5048415;28;20454;-69
2023/04/26 13:53:38;;;;;;;1.77;1.60;;;;;;;;;;5047019;28;20939;-69
2023/04/26 13:56:08;;;;;;;1.97;1.60;;;;;;;;;;5046963;28;20997;-70
2023/04/26 13:58:35;;;;;;;4.20;1.90;;;;;;;;;;5047162;28;20489;-70
2023/04/26 14:01:03;;;;;;;3.37;1.63;;;;;;;;;;5047147;28;20470;-70
2023/04/26 14:03:30;;;;;;;2.50;1.90;;;;;;;;;;5046734;28;20535;-69
2023/04/26 14:05:58;;;;;;;2.27;1.73;;;;;;;;;;5046304;28;20455;-70
2023/04/26 14:08:25;;;;;;;4.10;1.57;;;;;;;;;;5047870;28;20442;-71
2023/04/26 14:10:53;;;;;;;2.10;1.60;;;;;;;;;;5049722;28;20480;-70
2023/04/26 14:13:20;;;;;;;3.33;1.50;;;;;;;;;;5049511;28;20454;-70
2023/04/26 14:15:48;;;;;;;2.30;1.93;;;;;;;;;;5050422;28;20446;-69
2023/04/26 14:18:15;;;;;;;1.83;1.70;;;;;;;;;;5050084;28;20438;-69
2023/04/26 14:20:42;;;;;;;1.93;1.30;;;;;;;;;;5049523;28;20958;-70
2023/04/26 14:23:10;;;;;;;1.50;1.40;;;;;;;;;;5051030;28;20478;-70
2023/04/26 14:25:37;;;;;;;1.67;1.40;;;;;;;;;;5049373;28;20456;-70
2023/04/26 14:28:05;;;;;;;2.27;1.80;;;;;;;;;;5050822;28;20446;-70
2023/04/26 14:30:32;;;;;;;2.60;1.53;;;;;;;;;;5049799;28;20447;-70
2023/04/26 14:32:59;;;;;;;1.83;1.63;;;;;;;;;;5050272;28;20512;-71